Glasco, KS

1:06 PM CDT on July 28, 2014 (GMT -0500)
Simpson KS (KKSBELOI5) Elev 1342 ft | 39.39 °N, 97.94 °W | Change Station

Current weather conditions updated 11 minutes ago

Clear
Clear
81.3 °F
Feels Like 85 °F
N
6.8
Wind Variable Wind from NE

Today is forecast to be Cooler than yesterday.

Today
High -- | Low -- °F
--% Chance of Precip.
Yesterday
High -- | Low -- °F
Precip. -- in
6:27 AM 8:47 PM
Waxing Crescent, 3% visible
Pressure 30.25 in
Visibility 10.0 miles
Clouds Clear
Heat Index 85 °F
Dew Point 69 °F
Humidity 67%
Rainfall 0.00 in
Snow Depth Not available.
UV 11 out of 12
Pollen 6.90 out of 12
Air Quality Not available.
Flu Activity Not available.
METAR KCNK 281755Z AUTO 33007KT 10SM CLR 26/14 A3029 RMK AO2 SLP243 T02560144 10261 20156 58007

More Conditions Fewer Conditions

Pressure 30.25 in
Visibility 10.0 miles
Clouds Clear
Heat Index 85 °F
Dew Point 69 °F
Humidity 67%
Rainfall 0.00 in
Snow Depth Not available.
UV 11 out of 12
Pollen 6.90 out of 12
Air Quality Not available.
Flu Activity Not available.
METAR KCNK 281755Z AUTO 33007KT 10SM CLR 26/14 A3029 RMK AO2 SLP243 T02560144 10261 20156 58007

More Conditions Fewer Conditions

10-Day Weather Forecast

Almanac

Astronomy

Jul. 28, 2014 Rise Set
Actual Time 6:27 AM CDT 8:47 PM CDT
Civil Twilight 5:57 AM CDT 9:17 PM CDT
Nautical Twilight 5:20 AM CDT 9:54 PM CDT
Astronomical Twilight 4:38 AM CDT 10:35 PM CDT
Moon 8:09 AM CDT 9:30 PM CDT
Length of Visible Light 15h 20m
Length of Day
14h 19m
Tomorrow will be 1m 50s shorter.
Waxing Crescent, 3% of the Moon is Illuminated
Today
Waxing Crescent
Aug 3
First Quarter
Aug 10
Full
Aug 17
Last Quarter
Aug 25
New

Today's Extremes

State Highs State Lows

Community

WunderPhotos

Upload Photos

1,738,429 photos uploaded!

WunderBlogs® & News

Nearby

Snow Depth

Station Depth Elevation
No new snow has been reported.

Earthquake Activity

City Distance Mag. Time & Date
No recent earthquake activity has been reported nearby.
Minimum magnitude displayed is 2.5.

Coastal Water Temperatures

Place Temperature
No Stations Reporting

Nearby Weather Stations

Station Location Temp. Heat Index Dew Point Humidity Wind Precip. Elev Updated Type
Simpson KS, Beloit, KS 81.3 °F 85 °F 69 °F 67% NE  at  6.8 mph - / hr 1342 ft 12:54 PM CDT Normal
Chancy's Pond, Delphos, KS 78.6 °F 80 °F 58 °F 50% NW  at  4.0 mph 0.00 in / hr 1375 ft 1:05 PM CDT Rapid Fire
Joe's Place, Concordia, KS 77.4 °F 79 °F 58 °F 52% North  at  7.0 mph 0.00 in / hr 1440 ft 1:05 PM CDT Rapid Fire
Center Township, BELOIT, KS 82.8 °F 83 °F 60 °F 46% NNW  at  3.0 mph 0.00 in / hr 1504 ft 1:05 PM CDT Normal
ERC Field, Minneapolis, KS 86.9 °F 86 °F 58 °F 37% North  at  4.2 mph - / hr 1309 ft 1:00 PM CDT Normal

Show More Stations Show Fewer Stations